sensor_id;sensor_type;location;lat;lon;timestamp;pressure;altitude;pressure_sealevel;temperature;humidity
78888;BME280;68276;49.326;8.690;2024-02-15T16:01:15;100229.69;;;15.03;68.21
78888;BME280;68276;49.326;8.690;2024-02-15T16:03:42;100231.56;;;15.03;67.77
78888;BME280;68276;49.326;8.690;2024-02-15T16:06:08;100229.28;;;15.00;68.05
78888;BME280;68276;49.326;8.690;2024-02-15T16:08:34;100228.06;;;14.96;68.28
78888;BME280;68276;49.326;8.690;2024-02-15T16:11:00;100230.16;;;14.93;68.31
78888;BME280;68276;49.326;8.690;2024-02-15T16:13:25;100236.41;;;14.87;68.75
78888;BME280;68276;49.326;8.690;2024-02-15T16:15:52;100244.97;;;14.84;68.91
78888;BME280;68276;49.326;8.690;2024-02-15T16:18:19;100231.88;;;14.81;69.18
78888;BME280;68276;49.326;8.690;2024-02-15T16:20:44;100225.63;;;14.81;68.84
78888;BME280;68276;49.326;8.690;2024-02-15T16:23:10;100229.00;;;14.76;69.14
78888;BME280;68276;49.326;8.690;2024-02-15T16:25:36;100229.44;;;14.73;69.42
78888;BME280;68276;49.326;8.690;2024-02-15T16:28:02;100235.44;;;14.75;68.67
78888;BME280;68276;49.326;8.690;2024-02-15T16:30:27;100227.75;;;14.72;68.92
78888;BME280;68276;49.326;8.690;2024-02-15T16:32:53;100221.53;;;14.65;69.26
78888;BME280;68276;49.326;8.690;2024-02-15T16:35:18;100214.31;;;14.59;69.67
78888;BME280;68276;49.326;8.690;2024-02-15T16:37:45;100211.59;;;14.53;69.90
78888;BME280;68276;49.326;8.690;2024-02-15T16:40:14;100204.56;;;14.52;69.55
78888;BME280;68276;49.326;8.690;2024-02-15T16:42:43;100202.88;;;14.57;69.04
78888;BME280;68276;49.326;8.690;2024-02-15T16:45:13;100202.66;;;14.59;69.49
78888;BME280;68276;49.326;8.690;2024-02-15T16:47:40;100209.13;;;14.51;69.83
78888;BME280;68276;49.326;8.690;2024-02-15T16:50:06;100202.69;;;14.52;69.34
78888;BME280;68276;49.326;8.690;2024-02-15T16:52:36;100201.63;;;14.53;69.02
78888;BME280;68276;49.326;8.690;2024-02-15T16:55:05;100209.59;;;14.42;69.98
78888;BME280;68276;49.326;8.690;2024-02-15T16:57:35;100211.22;;;14.43;69.66
78888;BME280;68276;49.326;8.690;2024-02-15T17:00:00;100227.47;;;14.36;70.38
78888;BME280;68276;49.326;8.690;2024-02-15T17:02:30;100219.38;;;14.36;69.97
78888;BME280;68276;49.326;8.690;2024-02-15T17:04:56;100221.84;;;14.38;69.87
78888;BME280;68276;49.326;8.690;2024-02-15T17:07:21;100231.00;;;14.43;69.17
78888;BME280;68276;49.326;8.690;2024-02-15T17:09:47;100230.59;;;14.40;69.25
78888;BME280;68276;49.326;8.690;2024-02-15T17:12:12;100221.63;;;14.39;69.28
78888;BME280;68276;49.326;8.690;2024-02-15T17:14:38;100219.56;;;14.41;69.38
78888;BME280;68276;49.326;8.690;2024-02-15T17:17:05;100220.19;;;14.43;68.58
78888;BME280;68276;49.326;8.690;2024-02-15T17:19:30;100222.44;;;14.46;68.32
78888;BME280;68276;49.326;8.690;2024-02-15T17:21:55;100224.72;;;14.49;68.18
78888;BME280;68276;49.326;8.690;2024-02-15T17:24:21;100217.84;;;14.53;67.69
78888;BME280;68276;49.326;8.690;2024-02-15T17:26:46;100226.81;;;14.54;67.71
78888;BME280;68276;49.326;8.690;2024-02-15T17:29:12;100225.78;;;14.48;67.99
78888;BME280;68276;49.326;8.690;2024-02-15T17:31:39;100243.84;;;14.48;67.88
78888;BME280;68276;49.326;8.690;2024-02-15T17:34:07;100232.03;;;14.49;67.69
78888;BME280;68276;49.326;8.690;2024-02-15T17:36:37;100227.44;;;14.43;68.03
78888;BME280;68276;49.326;8.690;2024-02-15T17:39:03;100219.53;;;14.48;67.44
78888;BME280;68276;49.326;8.690;2024-02-15T17:41:29;100203.75;;;14.45;68.29
78888;BME280;68276;49.326;8.690;2024-02-15T17:43:57;100203.09;;;14.49;67.31
78888;BME280;68276;49.326;8.690;2024-02-15T17:46:25;100205.78;;;14.49;67.34
78888;BME280;68276;49.326;8.690;2024-02-15T17:48:58;100211.00;;;14.51;67.54
78888;BME280;68276;49.326;8.690;2024-02-15T17:51:24;100209.97;;;14.52;66.86
78888;BME280;68276;49.326;8.690;2024-02-15T17:53:49;100209.13;;;14.51;67.25
78888;BME280;68276;49.326;8.690;2024-02-15T17:56:14;100212.81;;;14.63;66.30
78888;BME280;68276;49.326;8.690;2024-02-15T17:58:43;100205.97;;;14.61;66.43
78888;BME280;68276;49.326;8.690;2024-02-15T18:01:13;100209.31;;;14.56;66.82
78888;BME280;68276;49.326;8.690;2024-02-15T18:03:39;100212.19;;;14.61;66.70
78888;BME280;68276;49.326;8.690;2024-02-15T18:06:07;100207.88;;;14.54;67.05
78888;BME280;68276;49.326;8.690;2024-02-15T18:08:35;100201.84;;;14.52;67.14
78888;BME280;68276;49.326;8.690;2024-02-15T18:11:00;100193.75;;;14.52;66.91
78888;BME280;68276;49.326;8.690;2024-02-15T18:13:27;100182.53;;;14.48;67.40
78888;BME280;68276;49.326;8.690;2024-02-15T18:15:55;100177.09;;;14.55;66.89
78888;BME280;68276;49.326;8.690;2024-02-15T18:18:24;100184.16;;;14.56;66.96
78888;BME280;68276;49.326;8.690;2024-02-15T18:20:50;100182.47;;;14.61;66.46
78888;BME280;68276;49.326;8.690;2024-02-15T18:23:16;100178.34;;;14.52;67.17
78888;BME280;68276;49.326;8.690;2024-02-15T18:25:46;100186.28;;;14.47;67.37
78888;BME280;68276;49.326;8.690;2024-02-15T18:28:14;100186.69;;;14.44;67.56
78888;BME280;68276;49.326;8.690;2024-02-15T18:30:40;100183.00;;;14.39;67.67
78888;BME280;68276;49.326;8.690;2024-02-15T18:33:12;100176.75;;;14.38;68.10
78888;BME280;68276;49.326;8.690;2024-02-15T18:35:43;100172.19;;;14.32;68.53
78888;BME280;68276;49.326;8.690;2024-02-15T18:38:08;100183.84;;;14.33;68.35
78888;BME280;68276;49.326;8.690;2024-02-15T18:40:38;100182.19;;;14.32;68.37
78888;BME280;68276;49.326;8.690;2024-02-15T18:43:04;100171.78;;;14.29;68.56
78888;BME280;68276;49.326;8.690;2024-02-15T18:45:30;100163.84;;;14.34;68.46
78888;BME280;68276;49.326;8.690;2024-02-15T18:47:57;100169.25;;;14.34;68.73
78888;BME280;68276;49.326;8.690;2024-02-15T18:50:23;100159.09;;;14.29;68.97
78888;BME280;68276;49.326;8.690;2024-02-15T18:52:49;100160.56;;;14.32;68.93
78888;BME280;68276;49.326;8.690;2024-02-15T18:55:15;100162.22;;;14.33;68.56
78888;BME280;68276;49.326;8.690;2024-02-15T18:57:40;100162.19;;;14.39;68.62
78888;BME280;68276;49.326;8.690;2024-02-15T19:00:09;100165.09;;;14.38;68.47
78888;BME280;68276;49.326;8.690;2024-02-15T19:02:35;100157.00;;;14.38;68.72
78888;BME280;68276;49.326;8.690;2024-02-15T19:05:00;100151.41;;;14.33;68.99
78888;BME280;68276;49.326;8.690;2024-02-15T19:07:36;100146.66;;;14.28;69.12
78888;BME280;68276;49.326;8.690;2024-02-15T19:10:01;100148.06;;;14.24;69.54
78888;BME280;68276;49.326;8.690;2024-02-15T19:12:27;100157.84;;;14.25;69.53
78888;BME280;68276;49.326;8.690;2024-02-15T19:14:52;100157.66;;;14.27;69.39
78888;BME280;68276;49.326;8.690;2024-02-15T19:17:18;100148.28;;;14.29;69.03
78888;BME280;68276;49.326;8.690;2024-02-15T19:19:44;100155.75;;;14.34;69.26
78888;BME280;68276;49.326;8.690;2024-02-15T19:22:09;100143.28;;;14.33;69.10
78888;BME280;68276;49.326;8.690;2024-02-15T19:24:37;100145.94;;;14.46;68.89
78888;BME280;68276;49.326;8.690;2024-02-15T19:27:02;100139.75;;;14.39;69.10
78888;BME280;68276;49.326;8.690;2024-02-15T19:29:28;100148.03;;;14.37;69.20
78888;BME280;68276;49.326;8.690;2024-02-15T19:31:53;100144.31;;;14.38;69.61
78888;BME280;68276;49.326;8.690;2024-02-15T19:34:19;100135.00;;;14.28;69.98
78888;BME280;68276;49.326;8.690;2024-02-15T19:36:45;100129.16;;;14.24;69.91
78888;BME280;68276;49.326;8.690;2024-02-15T19:39:13;100124.19;;;14.21;70.37
78888;BME280;68276;49.326;8.690;2024-02-15T19:41:40;100121.91;;;14.25;70.33
78888;BME280;68276;49.326;8.690;2024-02-15T19:44:08;100122.53;;;14.27;70.17
78888;BME280;68276;49.326;8.690;2024-02-15T19:46:34;100122.72;;;14.32;69.93
78888;BME280;68276;49.326;8.690;2024-02-15T19:49:09;100128.94;;;14.32;69.78
78888;BME280;68276;49.326;8.690;2024-02-15T19:51:35;100133.94;;;14.29;69.96
78888;BME280;68276;49.326;8.690;2024-02-15T19:54:01;100129.16;;;14.31;69.92
78888;BME280;68276;49.326;8.690;2024-02-15T19:56:30;100125.00;;;14.22;70.60
78888;BME280;68276;49.326;8.690;2024-02-15T19:58:59;100130.22;;;14.17;70.86
78888;BME280;68276;49.326;8.690;2024-02-15T20:01:25;100112.41;;;14.09;71.40
78888;BME280;68276;49.326;8.690;2024-02-15T20:03:51;100119.06;;;14.00;71.85
78888;BME280;68276;49.326;8.690;2024-02-15T20:06:17;100116.81;;;13.97;72.27
78888;BME280;68276;49.326;8.690;2024-02-15T20:08:44;100116.41;;;13.94;72.73
78888;BME280;68276;49.326;8.690;2024-02-15T20:11:11;100127.59;;;13.97;72.51
78888;BME280;68276;49.326;8.690;2024-02-15T20:13:37;100129.47;;;13.97;72.55
78888;BME280;68276;49.326;8.690;2024-02-15T20:16:03;100123.63;;;14.00;72.26
78888;BME280;68276;49.326;8.690;2024-02-15T20:18:33;100118.66;;;13.97;72.44
78888;BME280;68276;49.326;8.690;2024-02-15T20:20:59;100114.50;;;13.94;72.32
78888;BME280;68276;49.326;8.690;2024-02-15T20:23:25;100106.63;;;13.93;72.42
78888;BME280;68276;49.326;8.690;2024-02-15T20:25:51;100104.53;;;13.95;72.18
78888;BME280;68276;49.326;8.690;2024-02-15T20:28:16;100104.09;;;13.98;72.35
78888;BME280;68276;49.326;8.690;2024-02-15T20:30:43;100110.97;;;14.00;72.30
78888;BME280;68276;49.326;8.690;2024-02-15T20:33:10;100106.41;;;14.01;72.13
78888;BME280;68276;49.326;8.690;2024-02-15T20:35:43;100099.50;;;14.05;72.06
78888;BME280;68276;49.326;8.690;2024-02-15T20:38:10;100107.00;;;14.09;71.24
78888;BME280;68276;49.326;8.690;2024-02-15T20:40:39;100104.28;;;14.09;71.31
78888;BME280;68276;49.326;8.690;2024-02-15T20:43:04;100104.69;;;14.06;71.82
78888;BME280;68276;49.326;8.690;2024-02-15T20:45:30;100095.38;;;14.02;71.79
78888;BME280;68276;49.326;8.690;2024-02-15T20:47:55;100106.19;;;13.96;71.61
78888;BME280;68276;49.326;8.690;2024-02-15T20:50:21;100107.44;;;13.93;72.17
78888;BME280;68276;49.326;8.690;2024-02-15T20:52:46;100114.53;;;13.88;72.98
78888;BME280;68276;49.326;8.690;2024-02-15T20:55:13;100112.88;;;13.80;73.12
78888;BME280;68276;49.326;8.690;2024-02-15T20:57:38;100116.88;;;13.71;73.82
78888;BME280;68276;49.326;8.690;2024-02-15T21:00:05;100116.66;;;13.66;73.96
78888;BME280;68276;49.326;8.690;2024-02-15T21:02:41;100121.66;;;13.62;74.00
78888;BME280;68276;49.326;8.690;2024-02-15T21:05:09;100133.88;;;13.65;73.81
78888;BME280;68276;49.326;8.690;2024-02-15T21:07:36;100133.06;;;13.58;73.84
78888;BME280;68276;49.326;8.690;2024-02-15T21:10:06;100122.88;;;13.60;74.27
78888;BME280;68276;49.326;8.690;2024-02-15T21:12:40;100113.75;;;13.61;74.11
78888;BME280;68276;49.326;8.690;2024-02-15T21:15:06;100116.84;;;13.64;73.49
78888;BME280;68276;49.326;8.690;2024-02-15T21:17:37;100114.16;;;13.64;73.49
78888;BME280;68276;49.326;8.690;2024-02-15T21:20:04;100112.47;;;13.70;73.04
78888;BME280;68276;49.326;8.690;2024-02-15T21:22:29;100092.09;;;13.80;72.17
78888;BME280;68276;49.326;8.690;2024-02-15T21:24:56;100107.06;;;13.83;72.29
78888;BME280;68276;49.326;8.690;2024-02-15T21:27:23;100109.78;;;13.83;72.05
78888;BME280;68276;49.326;8.690;2024-02-15T21:29:48;100111.59;;;13.89;71.56
78888;BME280;68276;49.326;8.690;2024-02-15T21:32:14;100094.19;;;13.85;72.11
78888;BME280;68276;49.326;8.690;2024-02-15T21:34:42;100097.09;;;13.77;72.49
78888;BME280;68276;49.326;8.690;2024-02-15T21:37:07;100108.53;;;13.79;72.42
78888;BME280;68276;49.326;8.690;2024-02-15T21:39:34;100094.84;;;13.74;72.52
78888;BME280;68276;49.326;8.690;2024-02-15T21:42:05;100100.03;;;13.69;72.98
78888;BME280;68276;49.326;8.690;2024-02-15T21:44:31;100099.63;;;13.65;72.98
78888;BME280;68276;49.326;8.690;2024-02-15T21:46:56;100095.47;;;13.63;73.32
78888;BME280;68276;49.326;8.690;2024-02-15T21:49:22;100098.41;;;13.55;73.56
78888;BME280;68276;49.326;8.690;2024-02-15T21:51:47;100096.94;;;13.46;74.53
78888;BME280;68276;49.326;8.690;2024-02-15T21:54:13;100096.53;;;13.55;73.34
78888;BME280;68276;49.326;8.690;2024-02-15T21:56:38;100096.53;;;13.55;73.62
78888;BME280;68276;49.326;8.690;2024-02-15T21:59:04;100094.66;;;13.62;72.62
78888;BME280;68276;49.326;8.690;2024-02-15T22:01:29;100099.66;;;13.59;73.08
78888;BME280;68276;49.326;8.690;2024-02-15T22:03:56;100098.19;;;13.50;73.86
78888;BME280;68276;49.326;8.690;2024-02-15T22:06:21;100092.59;;;13.45;73.70
78888;BME280;68276;49.326;8.690;2024-02-15T22:08:47;100098.63;;;13.47;74.27
78888;BME280;68276;49.326;8.690;2024-02-15T22:11:12;100107.97;;;13.44;74.09
78888;BME280;68276;49.326;8.690;2024-02-15T22:13:38;100102.97;;;13.54;73.37
78888;BME280;68276;49.326;8.690;2024-02-15T22:16:03;100107.13;;;13.57;73.02
78888;BME280;68276;49.326;8.690;2024-02-15T22:18:29;100105.88;;;13.53;73.55
78888;BME280;68276;49.326;8.690;2024-02-15T22:20:54;100100.50;;;13.46;73.74
78888;BME280;68276;49.326;8.690;2024-02-15T22:23:22;100102.13;;;13.47;73.88
78888;BME280;68276;49.326;8.690;2024-02-15T22:25:50;100088.88;;;13.39;74.07
78888;BME280;68276;49.326;8.690;2024-02-15T22:28:16;100095.09;;;13.40;74.11
78888;BME280;68276;49.326;8.690;2024-02-15T22:30:43;100095.31;;;13.38;74.17
78888;BME280;68276;49.326;8.690;2024-02-15T22:33:08;100099.25;;;13.42;73.56
78888;BME280;68276;49.326;8.690;2024-02-15T22:35:33;100100.06;;;13.43;73.45
78888;BME280;68276;49.326;8.690;2024-02-15T22:37:59;100098.00;;;13.51;72.49
78888;BME280;68276;49.326;8.690;2024-02-15T22:40:26;100105.47;;;13.43;73.08
78888;BME280;68276;49.326;8.690;2024-02-15T22:42:51;100112.72;;;13.42;73.56
78888;BME280;68276;49.326;8.690;2024-02-15T22:45:16;100107.13;;;13.37;73.95
78888;BME280;68276;49.326;8.690;2024-02-15T22:47:42;100096.34;;;13.31;74.17
78888;BME280;68276;49.326;8.690;2024-02-15T22:50:08;100101.75;;;13.37;73.50
78888;BME280;68276;49.326;8.690;2024-02-15T22:52:34;100104.03;;;13.34;73.56
78888;BME280;68276;49.326;8.690;2024-02-15T22:55:00;100111.09;;;13.35;73.50
78888;BME280;68276;49.326;8.690;2024-02-15T22:57:26;100106.72;;;13.27;73.80
78888;BME280;68276;49.326;8.690;2024-02-15T22:59:53;100109.22;;;13.22;74.79
78888;BME280;68276;49.326;8.690;2024-02-15T23:02:19;100107.75;;;13.20;74.16
78888;BME280;68276;49.326;8.690;2024-02-15T23:04:45;100114.63;;;13.16;74.89
78888;BME280;68276;49.326;8.690;2024-02-15T23:07:10;100131.41;;;13.18;75.12
78888;BME280;68276;49.326;8.690;2024-02-15T23:09:36;100129.75;;;13.10;75.24
78888;BME280;68276;49.326;8.690;2024-02-15T23:12:02;100123.09;;;13.06;75.44
78888;BME280;68276;49.326;8.690;2024-02-15T23:14:28;100123.06;;;13.00;75.99
78888;BME280;68276;49.326;8.690;2024-02-15T23:16:57;100128.69;;;12.98;76.04
78888;BME280;68276;49.326;8.690;2024-02-15T23:19:22;100135.72;;;12.93;76.30
78888;BME280;68276;49.326;8.690;2024-02-15T23:21:50;100140.06;;;12.87;76.84
78888;BME280;68276;49.326;8.690;2024-02-15T23:24:16;100133.22;;;12.85;76.95
78888;BME280;68276;49.326;8.690;2024-02-15T23:26:42;100143.78;;;12.80;77.42
78888;BME280;68276;49.326;8.690;2024-02-15T23:29:11;100139.00;;;12.82;77.00
78888;BME280;68276;49.326;8.690;2024-02-15T23:31:36;100139.84;;;12.82;76.94
78888;BME280;68276;49.326;8.690;2024-02-15T23:34:04;100138.22;;;12.88;76.63
78888;BME280;68276;49.326;8.690;2024-02-15T23:36:30;100142.34;;;12.90;76.51
78888;BME280;68276;49.326;8.690;2024-02-15T23:39:14;100136.13;;;12.90;76.57
78888;BME280;68276;49.326;8.690;2024-02-15T23:41:57;100142.38;;;12.97;76.45
78888;BME280;68276;49.326;8.690;2024-02-15T23:44:28;100142.75;;;12.94;76.51
78888;BME280;68276;49.326;8.690;2024-02-15T23:46:58;100142.78;;;13.00;75.94
78888;BME280;68276;49.326;8.690;2024-02-15T23:49:23;100135.72;;;12.99;76.37
78888;BME280;68276;49.326;8.690;2024-02-15T23:51:49;100142.97;;;12.86;77.34
78888;BME280;68276;49.326;8.690;2024-02-15T23:54:14;100139.84;;;12.82;77.45
78888;BME280;68276;49.326;8.690;2024-02-15T23:56:40;100133.59;;;12.75;78.07
78888;BME280;68276;49.326;8.690;2024-02-15T23:59:05;100133.78;;;12.60;79.14
